Time;durP1;ratioP1;P1;durP2;ratioP2;P2;SDS_P1;SDS_P2;PMS_P1;PMS_P2;Temp;Humidity;BMP_temperature;BMP_pressure;BME280_temperature;BME280_humidity;BME280_pressure;Samples;Min_cycle;Max_cycle;Signal;HPM_P1;HPM_P2
2023/01/28 00:01:49;;;;;;;6.50;4.50;;;;;;;;;;4995908;28;20459;-54
2023/01/28 00:04:15;;;;;;;6.70;4.33;;;;;;;;;;5010589;28;20475;-56
2023/01/28 00:06:41;;;;;;;9.53;4.57;;;;;;;;;;5011862;28;20474;-54
2023/01/28 00:09:07;;;;;;;5.90;4.43;;;;;;;;;;5018109;28;20459;-53
2023/01/28 00:11:33;;;;;;;6.00;4.90;;;;;;;;;;4978104;28;20842;-54
2023/01/28 00:13:59;;;;;;;5.03;4.20;;;;;;;;;;5019573;28;20474;-53
2023/01/28 00:16:29;;;;;;;6.33;4.27;;;;;;;;;;5011332;28;20447;-55
2023/01/28 00:18:55;;;;;;;4.73;3.93;;;;;;;;;;4996617;28;20439;-60
2023/01/28 00:21:21;;;;;;;5.90;3.87;;;;;;;;;;5009284;28;20458;-54
2023/01/28 00:23:48;;;;;;;6.43;4.40;;;;;;;;;;4989715;28;20457;-56
2023/01/28 00:26:14;;;;;;;7.80;5.20;;;;;;;;;;5005565;28;20435;-55
2023/01/28 00:28:40;;;;;;;6.43;4.47;;;;;;;;;;5017652;28;20452;-53
2023/01/28 00:31:16;;;;;;;7.20;5.33;;;;;;;;;;5007653;28;20689;-53
2023/01/28 00:33:43;;;;;;;8.33;4.50;;;;;;;;;;5019058;28;20443;-53
2023/01/28 00:36:09;;;;;;;6.40;5.17;;;;;;;;;;4983258;28;20478;-53
2023/01/28 00:38:35;;;;;;;5.80;4.30;;;;;;;;;;5010869;28;20431;-54
2023/01/28 00:41:11;;;;;;;7.63;5.20;;;;;;;;;;4994274;28;20462;-53
2023/01/28 00:43:37;;;;;;;5.20;4.60;;;;;;;;;;5014380;28;20446;-54
2023/01/28 00:46:03;;;;;;;8.57;4.30;;;;;;;;;;4970571;28;20939;-55
2023/01/28 00:48:29;;;;;;;5.43;3.37;;;;;;;;;;5015576;28;20443;-54
2023/01/28 00:50:56;;;;;;;6.90;4.70;;;;;;;;;;4992034;28;20451;-53
2023/01/28 00:53:22;;;;;;;6.40;4.87;;;;;;;;;;5012369;28;20475;-54
2023/01/28 00:55:48;;;;;;;5.47;4.43;;;;;;;;;;4979899;28;20481;-53
2023/01/28 00:58:14;;;;;;;7.97;4.97;;;;;;;;;;5003091;28;20427;-54
2023/01/28 01:00:39;;;;;;;7.83;5.27;;;;;;;;;;5012016;28;20459;-53
2023/01/28 01:03:05;;;;;;;6.97;4.90;;;;;;;;;;5016834;28;20931;-52
2023/01/28 01:05:32;;;;;;;5.37;3.27;;;;;;;;;;4985202;28;20539;-53
2023/01/28 01:07:58;;;;;;;7.53;4.70;;;;;;;;;;5012358;28;20179;-51
2023/01/28 01:10:24;;;;;;;6.10;3.43;;;;;;;;;;5013362;28;20439;-53
2023/01/28 01:12:50;;;;;;;5.80;4.10;;;;;;;;;;5016468;28;20492;-53
2023/01/28 01:15:16;;;;;;;5.87;4.10;;;;;;;;;;4973950;28;20739;-52
2023/01/28 01:17:43;;;;;;;6.83;4.00;;;;;;;;;;5012088;28;20431;-55
2023/01/28 01:20:16;;;;;;;7.87;4.60;;;;;;;;;;5017733;28;20448;-53
2023/01/28 01:22:42;;;;;;;5.47;4.00;;;;;;;;;;5011463;28;20435;-53
2023/01/28 01:25:08;;;;;;;6.27;4.00;;;;;;;;;;4975972;28;20474;-53
2023/01/28 01:27:34;;;;;;;6.77;4.30;;;;;;;;;;5008051;28;20454;-54
2023/01/28 01:30:00;;;;;;;5.47;4.33;;;;;;;;;;4987701;28;20439;-54
2023/01/28 01:32:30;;;;;;;6.67;4.53;;;;;;;;;;5005293;28;20526;-53
2023/01/28 01:34:56;;;;;;;4.57;3.60;;;;;;;;;;4983461;28;22178;-54
2023/01/28 01:37:22;;;;;;;5.60;4.20;;;;;;;;;;5008602;28;21012;-53
2023/01/28 01:39:48;;;;;;;6.40;4.47;;;;;;;;;;4987277;28;20441;-53
2023/01/28 01:42:14;;;;;;;3.90;3.43;;;;;;;;;;5017213;28;20442;-53
2023/01/28 01:44:56;;;;;;;7.20;4.60;;;;;;;;;;4988894;28;20448;-54
2023/01/28 01:47:29;;;;;;;8.10;4.33;;;;;;;;;;5007870;28;20943;-54
2023/01/28 01:49:55;;;;;;;5.80;4.23;;;;;;;;;;4968421;28;20447;-53
2023/01/28 01:52:24;;;;;;;7.10;4.07;;;;;;;;;;5010819;28;20549;-53
2023/01/28 01:54:51;;;;;;;7.03;4.50;;;;;;;;;;4984118;28;20511;-53
2023/01/28 01:57:19;;;;;;;4.20;3.50;;;;;;;;;;5016047;28;20443;-55
2023/01/28 01:59:45;;;;;;;3.73;3.30;;;;;;;;;;5005082;28;20451;-51
2023/01/28 02:02:11;;;;;;;5.50;4.27;;;;;;;;;;5009133;28;20470;-54
2023/01/28 02:04:43;;;;;;;6.90;4.27;;;;;;;;;;4982100;28;20447;-54
2023/01/28 02:07:09;;;;;;;6.87;4.60;;;;;;;;;;5005705;28;20459;-53
2023/01/28 02:09:37;;;;;;;4.90;3.07;;;;;;;;;;5014399;28;20477;-52
2023/01/28 02:12:04;;;;;;;9.83;3.67;;;;;;;;;;5017863;28;20484;-59
2023/01/28 02:14:31;;;;;;;5.40;3.60;;;;;;;;;;4980751;28;20486;-53
2023/01/28 02:16:57;;;;;;;5.40;4.03;;;;;;;;;;5012686;28;20499;-54
2023/01/28 02:19:23;;;;;;;6.30;3.77;;;;;;;;;;5007257;28;20439;-54
2023/01/28 02:21:55;;;;;;;10.20;3.93;;;;;;;;;;5018134;28;21248;-53
2023/01/28 02:24:39;;;;;;;5.13;4.20;;;;;;;;;;4960661;28;20451;-57
2023/01/28 02:27:17;;;;;;;6.27;4.17;;;;;;;;;;5003357;28;21193;-54
2023/01/28 02:30:06;;;;;;;4.93;3.90;;;;;;;;;;5012585;28;20647;-54
2023/01/28 02:33:08;;;;;;;6.37;4.07;;;;;;;;;;5011437;28;20557;-53
2023/01/28 02:35:43;;;;;;;4.80;3.80;;;;;;;;;;4964990;28;20591;-52
2023/01/28 02:38:13;;;;;;;5.00;3.33;;;;;;;;;;5002566;28;20430;-52
2023/01/28 02:41:00;;;;;;;7.20;3.70;;;;;;;;;;5013917;28;20478;-53
2023/01/28 02:43:34;;;;;;;5.40;3.50;;;;;;;;;;5006404;28;20463;-54
2023/01/28 02:48:45;;;;;;;4.77;3.07;;;;;;;;;;5013318;28;20469;-60
2023/01/28 02:51:32;;;;;;;4.80;3.47;;;;;;;;;;5016711;28;20478;-54
2023/01/28 02:53:59;;;;;;;5.10;3.73;;;;;;;;;;4998111;28;20436;-54
2023/01/28 02:56:29;;;;;;;4.87;3.30;;;;;;;;;;4970982;28;20462;-53
2023/01/28 02:58:58;;;;;;;6.00;3.60;;;;;;;;;;5009042;28;20435;-54
2023/01/28 03:01:38;;;;;;;4.53;3.20;;;;;;;;;;5003106;28;20521;-52
2023/01/28 03:04:07;;;;;;;5.07;2.90;;;;;;;;;;5010822;28;20964;-55
2023/01/28 03:06:37;;;;;;;4.03;3.63;;;;;;;;;;5008714;28;20440;-55
2023/01/28 03:09:22;;;;;;;5.17;4.30;;;;;;;;;;5010364;28;20467;-53
2023/01/28 03:36:52;;;;;;;7.43;4.17;;;;;;;;;;5001443;28;20453;-54
2023/01/28 03:39:18;;;;;;;5.43;4.20;;;;;;;;;;5004915;28;20876;-55
2023/01/28 03:41:54;;;;;;;5.30;4.80;;;;;;;;;;4998227;28;20450;-53
2023/01/28 03:47:07;;;;;;;6.13;5.17;;;;;;;;;;5012523;28;20450;-54
2023/01/28 03:49:33;;;;;;;4.93;4.03;;;;;;;;;;4997461;28;20888;-51
2023/01/28 03:51:59;;;;;;;6.10;5.20;;;;;;;;;;5006784;28;20439;-55
2023/01/28 03:54:25;;;;;;;7.30;5.00;;;;;;;;;;5000008;28;21266;-54
2023/01/28 03:56:51;;;;;;;9.17;5.40;;;;;;;;;;5003740;28;20451;-53
2023/01/28 03:59:18;;;;;;;7.80;4.60;;;;;;;;;;4998385;28;20514;-54
2023/01/28 04:01:44;;;;;;;6.57;4.80;;;;;;;;;;4983329;28;21465;-52
2023/01/28 04:04:21;;;;;;;7.17;4.70;;;;;;;;;;5015303;28;20462;-53
2023/01/28 04:06:47;;;;;;;7.60;5.90;;;;;;;;;;5009206;28;20443;-52
2023/01/28 04:09:13;;;;;;;5.93;5.13;;;;;;;;;;5014246;28;20443;-55
2023/01/28 04:11:39;;;;;;;8.20;4.77;;;;;;;;;;5005881;28;20439;-52
2023/01/28 04:14:05;;;;;;;6.80;5.47;;;;;;;;;;5013816;28;20562;-53
2023/01/28 04:16:31;;;;;;;10.20;5.40;;;;;;;;;;4985133;28;20574;-53
2023/01/28 04:18:58;;;;;;;8.20;5.80;;;;;;;;;;5011966;28;20473;-53
2023/01/28 04:21:24;;;;;;;7.20;5.30;;;;;;;;;;4984586;28;20469;-54
2023/01/28 04:23:50;;;;;;;6.70;4.93;;;;;;;;;;5019514;28;20443;-52
2023/01/28 04:26:15;;;;;;;8.70;5.93;;;;;;;;;;5001910;28;21331;-53
2023/01/28 04:28:41;;;;;;;8.80;6.33;;;;;;;;;;5024067;28;20482;-53
2023/01/28 04:31:07;;;;;;;7.90;5.67;;;;;;;;;;5016287;28;20470;-53
2023/01/28 04:33:33;;;;;;;7.53;5.30;;;;;;;;;;5016199;28;20443;-54
2023/01/28 04:35:59;;;;;;;11.77;6.00;;;;;;;;;;4964062;28;20493;-53
2023/01/28 04:38:25;;;;;;;7.83;5.33;;;;;;;;;;5015486;28;21199;-54
2023/01/28 04:40:51;;;;;;;8.27;5.37;;;;;;;;;;5003391;28;20423;-53
2023/01/28 04:43:18;;;;;;;7.70;5.87;;;;;;;;;;5013593;28;21120;-54
2023/01/28 04:45:44;;;;;;;9.10;6.43;;;;;;;;;;4993581;28;20490;-52
2023/01/28 04:48:10;;;;;;;7.47;5.47;;;;;;;;;;5010644;28;20538;-53
2023/01/28 04:50:37;;;;;;;9.53;5.70;;;;;;;;;;4989848;28;21367;-54
2023/01/28 04:53:03;;;;;;;8.83;4.93;;;;;;;;;;4996270;28;20455;-52
2023/01/28 04:55:29;;;;;;;7.47;5.53;;;;;;;;;;5015443;28;20604;-51
2023/01/28 04:57:55;;;;;;;7.27;5.60;;;;;;;;;;4988367;28;20495;-52
2023/01/28 05:00:21;;;;;;;10.27;7.20;;;;;;;;;;5028873;28;20462;-53
2023/01/28 05:02:47;;;;;;;6.80;4.90;;;;;;;;;;5012290;28;20484;-56
2023/01/28 05:05:13;;;;;;;7.37;6.03;;;;;;;;;;5009240;28;21721;-55
2023/01/28 05:07:39;;;;;;;9.50;6.37;;;;;;;;;;4977964;28;20482;-54
2023/01/28 05:10:05;;;;;;;8.10;5.63;;;;;;;;;;5018151;28;20447;-53
2023/01/28 05:12:32;;;;;;;7.90;5.77;;;;;;;;;;5009350;28;20439;-52
2023/01/28 05:15:03;;;;;;;10.67;6.13;;;;;;;;;;5018042;28;20483;-52
2023/01/28 05:17:29;;;;;;;7.30;5.77;;;;;;;;;;4993157;28;20432;-52
2023/01/28 05:19:54;;;;;;;10.60;7.17;;;;;;;;;;5019978;28;20473;-53
2023/01/28 05:22:21;;;;;;;9.10;5.60;;;;;;;;;;4999508;28;20443;-53
2023/01/28 05:24:46;;;;;;;8.60;6.00;;;;;;;;;;5014967;28;20523;-53
2023/01/28 05:27:12;;;;;;;8.40;6.03;;;;;;;;;;5010348;28;20514;-54
2023/01/28 05:29:38;;;;;;;9.33;5.47;;;;;;;;;;5016905;28;20479;-54
2023/01/28 05:32:04;;;;;;;7.77;4.50;;;;;;;;;;5013028;28;21049;-54
2023/01/28 05:34:30;;;;;;;8.80;5.93;;;;;;;;;;5015873;28;20459;-54
2023/01/28 05:36:56;;;;;;;6.80;5.07;;;;;;;;;;4988306;28;21313;-54
2023/01/28 05:39:22;;;;;;;7.20;5.97;;;;;;;;;;5013166;28;20658;-54
2023/01/28 05:41:48;;;;;;;9.50;5.90;;;;;;;;;;5013264;28;20509;-52
2023/01/28 05:44:14;;;;;;;9.43;5.90;;;;;;;;;;5013106;28;22371;-57
2023/01/28 05:46:44;;;;;;;9.37;6.43;;;;;;;;;;5002582;28;20550;-53
2023/01/28 05:49:12;;;;;;;8.40;5.97;;;;;;;;;;5007297;28;21205;-54
2023/01/28 05:51:41;;;;;;;9.07;6.37;;;;;;;;;;4995286;28;20444;-53
2023/01/28 05:54:07;;;;;;;7.93;6.50;;;;;;;;;;5018835;28;20435;-53
2023/01/28 05:56:33;;;;;;;11.07;7.07;;;;;;;;;;4991921;28;20451;-56
2023/01/28 05:59:00;;;;;;;9.60;7.57;;;;;;;;;;5016464;28;20514;-56
2023/01/28 06:01:26;;;;;;;7.70;4.70;;;;;;;;;;5011070;28;20501;-53
2023/01/28 06:03:51;;;;;;;9.17;5.73;;;;;;;;;;5011269;28;20637;-54
2023/01/28 06:06:17;;;;;;;8.57;6.50;;;;;;;;;;4993230;28;22902;-56
2023/01/28 06:08:43;;;;;;;10.93;7.30;;;;;;;;;;5010215;28;20452;-52
2023/01/28 06:11:20;;;;;;;;;;;;;;;;;;;;;
2023/01/28 06:13:47;;;;;;;9.07;6.93;;;;;;;;;;4996275;28;20454;-53
2023/01/28 06:16:13;;;;;;;7.83;5.97;;;;;;;;;;5015131;28;20906;-53
2023/01/28 06:18:40;;;;;;;7.00;5.77;;;;;;;;;;5014745;28;20481;-53
2023/01/28 06:21:06;;;;;;;9.67;5.90;;;;;;;;;;5008463;28;20475;-53
2023/01/28 06:23:32;;;;;;;9.57;5.60;;;;;;;;;;5012025;28;20443;-53
2023/01/28 06:25:58;;;;;;;9.50;6.53;;;;;;;;;;5003870;28;21054;-54
2023/01/28 06:28:25;;;;;;;10.47;7.00;;;;;;;;;;4995029;28;20215;-55
2023/01/28 06:30:51;;;;;;;8.60;5.80;;;;;;;;;;5014457;28;20463;-54
2023/01/28 06:33:17;;;;;;;8.60;5.90;;;;;;;;;;5011890;28;20481;-54
2023/01/28 06:35:43;;;;;;;10.50;5.67;;;;;;;;;;5013298;28;20536;-54
2023/01/28 06:38:09;;;;;;;10.33;5.73;;;;;;;;;;5009885;28;20465;-54
2023/01/28 06:40:35;;;;;;;7.30;5.53;;;;;;;;;;5016228;28;20446;-54
2023/01/28 06:43:01;;;;;;;8.47;5.97;;;;;;;;;;4975635;28;20446;-53
2023/01/28 06:45:27;;;;;;;7.43;5.97;;;;;;;;;;5020266;28;20435;-53
2023/01/28 06:47:53;;;;;;;9.60;6.03;;;;;;;;;;4988759;28;20460;-55
2023/01/28 06:50:19;;;;;;;9.80;5.40;;;;;;;;;;5013067;28;20419;-53
2023/01/28 06:52:45;;;;;;;8.83;6.77;;;;;;;;;;5016504;28;20435;-53
2023/01/28 06:55:11;;;;;;;10.37;6.40;;;;;;;;;;5022377;28;20483;-53
2023/01/28 06:57:40;;;;;;;8.93;4.77;;;;;;;;;;4985698;28;20443;-54
2023/01/28 07:00:07;;;;;;;9.63;5.73;;;;;;;;;;5018775;28;20526;-52
2023/01/28 07:02:33;;;;;;;9.70;5.00;;;;;;;;;;5017142;28;21428;-54
2023/01/28 07:04:59;;;;;;;13.23;6.70;;;;;;;;;;5023909;28;20820;-53
2023/01/28 07:07:25;;;;;;;7.23;4.90;;;;;;;;;;5013499;28;20438;-53
2023/01/28 07:09:51;;;;;;;10.77;5.57;;;;;;;;;;5020650;28;20439;-54
2023/01/28 07:12:17;;;;;;;9.20;6.17;;;;;;;;;;4981367;28;20451;-52
2023/01/28 07:14:43;;;;;;;11.57;7.53;;;;;;;;;;5021056;28;20552;-53
2023/01/28 07:17:08;;;;;;;10.90;5.63;;;;;;;;;;4989248;28;20987;-52
2023/01/28 07:19:34;;;;;;;13.30;7.63;;;;;;;;;;5012622;28;20420;-52
2023/01/28 07:22:02;;;;;;;10.30;7.50;;;;;;;;;;5018616;28;20466;-52
2023/01/28 07:24:28;;;;;;;12.90;6.70;;;;;;;;;;5021366;28;20485;-52
2023/01/28 07:26:54;;;;;;;11.90;7.50;;;;;;;;;;5011104;28;20424;-54
2023/01/28 07:29:20;;;;;;;11.90;8.00;;;;;;;;;;5015835;28;20474;-54
2023/01/28 07:31:46;;;;;;;11.00;7.10;;;;;;;;;;4986629;28;20463;-54
2023/01/28 07:34:12;;;;;;;13.40;7.43;;;;;;;;;;4989942;28;20526;-55
2023/01/28 07:36:38;;;;;;;18.67;7.30;;;;;;;;;;5013814;28;20435;-55
2023/01/28 07:39:04;;;;;;;9.90;6.60;;;;;;;;;;4997245;28;20423;-54
2023/01/28 07:41:30;;;;;;;9.20;6.63;;;;;;;;;;5018209;28;20532;-53
2023/01/28 07:43:56;;;;;;;8.77;6.80;;;;;;;;;;4980500;28;20430;-54
2023/01/28 07:46:22;;;;;;;9.10;6.03;;;;;;;;;;5017145;28;20477;-53
2023/01/28 07:48:47;;;;;;;8.80;6.53;;;;;;;;;;4990121;28;20436;-54
2023/01/28 07:51:13;;;;;;;8.00;5.77;;;;;;;;;;5019302;28;20438;-52
2023/01/28 07:53:39;;;;;;;9.10;6.80;;;;;;;;;;5002553;28;20442;-53
2023/01/28 07:56:05;;;;;;;9.20;6.03;;;;;;;;;;5020517;28;20475;-53
2023/01/28 07:58:33;;;;;;;10.50;7.27;;;;;;;;;;5014941;28;20442;-53
2023/01/28 08:00:59;;;;;;;8.27;5.73;;;;;;;;;;5010303;28;20952;-53
2023/01/28 08:03:25;;;;;;;12.07;8.33;;;;;;;;;;4983438;28;20536;-53
2023/01/28 08:05:52;;;;;;;12.73;7.23;;;;;;;;;;5017170;28;20443;-55
2023/01/28 08:08:18;;;;;;;10.80;6.77;;;;;;;;;;4991011;28;20445;-52
2023/01/28 08:10:44;;;;;;;10.13;6.80;;;;;;;;;;5019716;28;20528;-52
2023/01/28 08:13:10;;;;;;;9.20;7.20;;;;;;;;;;5016759;28;20450;-52
2023/01/28 08:15:36;;;;;;;9.70;6.57;;;;;;;;;;5013878;28;20622;-53
2023/01/28 08:18:02;;;;;;;12.90;8.57;;;;;;;;;;4970496;28;20455;-53
2023/01/28 08:20:28;;;;;;;11.30;7.07;;;;;;;;;;5013722;28;20517;-52
2023/01/28 08:22:54;;;;;;;9.83;7.60;;;;;;;;;;5020912;28;20435;-53
2023/01/28 08:25:20;;;;;;;8.83;6.17;;;;;;;;;;4998421;28;20447;-52
2023/01/28 08:27:46;;;;;;;9.53;6.47;;;;;;;;;;5015547;28;20449;-53
2023/01/28 08:30:12;;;;;;;10.33;6.47;;;;;;;;;;5017393;28;20447;-53
2023/01/28 08:32:38;;;;;;;12.70;8.50;;;;;;;;;;5013506;28;21214;-52
2023/01/28 08:35:06;;;;;;;10.83;6.70;;;;;;;;;;4986779;28;20758;-50
2023/01/28 08:37:32;;;;;;;11.40;7.70;;;;;;;;;;5009672;28;20422;-53
2023/01/28 08:39:58;;;;;;;8.53;6.53;;;;;;;;;;5008046;28;20451;-54
2023/01/28 08:42:24;;;;;;;12.07;7.70;;;;;;;;;;5019220;28;20469;-53
2023/01/28 08:44:50;;;;;;;8.50;6.77;;;;;;;;;;5001245;28;20538;-53
2023/01/28 08:47:16;;;;;;;12.83;7.43;;;;;;;;;;4980219;28;1046442;-53
2023/01/28 08:49:42;;;;;;;11.90;7.10;;;;;;;;;;4949647;28;20208;-53
2023/01/28 08:52:08;;;;;;;9.23;6.40;;;;;;;;;;5016625;28;20431;-54
2023/01/28 08:54:35;;;;;;;14.73;7.87;;;;;;;;;;4988635;28;20474;-54
2023/01/28 08:57:01;;;;;;;11.00;8.60;;;;;;;;;;5016034;28;20580;-54
2023/01/28 08:59:27;;;;;;;10.47;7.17;;;;;;;;;;5015942;28;21241;-55
2023/01/28 09:01:53;;;;;;;14.50;6.77;;;;;;;;;;5020694;28;21589;-54
2023/01/28 09:04:19;;;;;;;10.97;7.47;;;;;;;;;;4989911;28;20457;-55
2023/01/28 09:06:45;;;;;;;10.97;6.97;;;;;;;;;;5018229;28;21112;-54
2023/01/28 09:09:11;;;;;;;13.00;9.07;;;;;;;;;;5018483;28;20441;-54
2023/01/28 09:11:37;;;;;;;11.40;7.60;;;;;;;;;;5010546;28;21741;-54
2023/01/28 09:14:03;;;;;;;10.47;6.37;;;;;;;;;;5033631;28;20187;-53
2023/01/28 09:16:28;;;;;;;9.80;6.60;;;;;;;;;;5014977;28;20527;-52
2023/01/28 09:18:58;;;;;;;8.67;6.40;;;;;;;;;;5000333;28;20451;-53
2023/01/28 09:21:24;;;;;;;11.33;6.93;;;;;;;;;;4991834;28;20463;-53
2023/01/28 09:23:50;;;;;;;11.37;6.70;;;;;;;;;;5015226;28;20473;-52
2023/01/28 09:26:16;;;;;;;10.97;6.87;;;;;;;;;;4996762;28;20428;-50
2023/01/28 09:28:42;;;;;;;20.63;6.97;;;;;;;;;;5014340;28;20994;-54
2023/01/28 09:31:09;;;;;;;19.63;9.23;;;;;;;;;;5014909;28;20415;-55
2023/01/28 09:33:35;;;;;;;9.17;6.47;;;;;;;;;;5021435;28;20435;-54
2023/01/28 09:36:02;;;;;;;10.63;7.00;;;;;;;;;;4991278;28;20573;-56
2023/01/28 09:38:31;;;;;;;14.00;8.80;;;;;;;;;;5030417;28;20443;-53
2023/01/28 09:40:57;;;;;;;13.60;7.77;;;;;;;;;;4987287;28;20435;-53
2023/01/28 09:43:42;;;;;;;12.33;6.90;;;;;;;;;;5012250;28;20445;-52
2023/01/28 09:46:09;;;;;;;11.17;6.67;;;;;;;;;;4980222;28;20451;-53
2023/01/28 09:48:37;;;;;;;12.07;7.93;;;;;;;;;;5019141;28;20509;-53
2023/01/28 09:51:03;;;;;;;14.00;8.03;;;;;;;;;;4999808;28;20439;-53
2023/01/28 09:53:30;;;;;;;12.40;7.93;;;;;;;;;;5017312;28;20467;-54
2023/01/28 09:55:57;;;;;;;9.93;6.67;;;;;;;;;;4981772;28;20505;-54
2023/01/28 09:58:23;;;;;;;11.70;6.97;;;;;;;;;;5019435;28;20443;-52
2023/01/28 10:01:10;;;;;;;16.43;7.80;;;;;;;;;;5008933;28;20526;-52
2023/01/28 10:03:54;;;;;;;14.73;8.37;;;;;;;;;;5011523;28;20439;-53
2023/01/28 10:06:35;;;;;;;12.33;7.63;;;;;;;;;;4990548;28;20461;-53
2023/01/28 10:09:19;;;;;;;12.70;8.13;;;;;;;;;;4998161;28;20667;-54
2023/01/28 10:11:54;;;;;;;10.97;6.97;;;;;;;;;;5005704;28;20436;-53
2023/01/28 10:14:27;;;;;;;12.17;10.27;;;;;;;;;;5014093;28;20454;-55
2023/01/28 10:17:11;;;;;;;15.00;8.67;;;;;;;;;;5013579;28;20447;-56
2023/01/28 10:19:42;;;;;;;13.10;8.43;;;;;;;;;;5015825;28;20744;-53
2023/01/28 10:22:13;;;;;;;11.73;7.10;;;;;;;;;;5015541;28;20442;-53
2023/01/28 10:24:44;;;;;;;11.00;7.53;;;;;;;;;;4959348;28;21119;-53
2023/01/28 10:27:19;;;;;;;14.97;9.40;;;;;;;;;;5013616;28;20447;-52
2023/01/28 10:29:45;;;;;;;14.27;8.67;;;;;;;;;;4996405;28;20492;-54
2023/01/28 10:32:21;;;;;;;12.50;8.93;;;;;;;;;;5013859;28;20431;-56
2023/01/28 10:34:47;;;;;;;12.37;7.37;;;;;;;;;;4990542;28;21684;-54
2023/01/28 10:37:13;;;;;;;13.37;8.20;;;;;;;;;;5016579;28;20960;-53
2023/01/28 10:39:39;;;;;;;14.47;7.07;;;;;;;;;;4984229;28;20453;-52
2023/01/28 10:42:35;;;;;;;10.70;8.80;;;;;;;;;;5016765;28;20435;-55
2023/01/28 10:45:07;;;;;;;13.67;7.57;;;;;;;;;;4983418;28;20438;-53
2023/01/28 10:47:35;;;;;;;14.63;9.03;;;;;;;;;;5014974;28;20466;-53
2023/01/28 10:50:01;;;;;;;17.27;8.87;;;;;;;;;;5015251;28;20488;-53
2023/01/28 10:52:26;;;;;;;16.47;8.17;;;;;;;;;;5019198;28;20914;-54
2023/01/28 10:55:02;;;;;;;13.03;8.40;;;;;;;;;;5012372;28;20756;-52
2023/01/28 10:57:28;;;;;;;9.77;7.27;;;;;;;;;;5014236;28;20500;-53
2023/01/28 10:59:54;;;;;;;13.23;9.27;;;;;;;;;;4968553;28;20484;-53
2023/01/28 11:02:34;;;;;;;12.30;8.30;;;;;;;;;;5018083;28;20685;-53
2023/01/28 11:05:24;;;;;;;10.70;6.70;;;;;;;;;;4993876;28;20442;-54
2023/01/28 11:07:50;;;;;;;13.93;8.90;;;;;;;;;;5015703;28;20494;-53
2023/01/28 11:10:25;;;;;;;16.63;8.83;;;;;;;;;;5011898;28;20990;-53
2023/01/28 11:12:58;;;;;;;18.93;8.67;;;;;;;;;;5019887;28;20432;-54
2023/01/28 11:15:24;;;;;;;15.17;8.87;;;;;;;;;;4992043;28;20483;-54
2023/01/28 11:17:57;;;;;;;12.77;9.40;;;;;;;;;;4999185;28;20538;-53
2023/01/28 11:20:24;;;;;;;12.00;7.77;;;;;;;;;;5020272;28;20431;-53
2023/01/28 11:22:50;;;;;;;11.70;7.43;;;;;;;;;;5005727;28;21413;-52
2023/01/28 11:25:17;;;;;;;14.13;8.00;;;;;;;;;;4994613;28;20443;-53
2023/01/28 11:27:47;;;;;;;12.30;9.03;;;;;;;;;;5012805;28;20538;-55
2023/01/28 11:30:29;;;;;;;10.97;7.00;;;;;;;;;;4997597;28;20496;-58
2023/01/28 11:32:55;;;;;;;13.87;8.07;;;;;;;;;;5002661;28;20488;-54
2023/01/28 11:35:26;;;;;;;12.20;8.33;;;;;;;;;;5006686;28;20479;-53
2023/01/28 11:37:52;;;;;;;16.53;7.47;;;;;;;;;;5009659;28;20932;-54
2023/01/28 11:40:21;;;;;;;11.53;7.27;;;;;;;;;;5009551;28;20482;-53
2023/01/28 11:42:47;;;;;;;7.67;5.73;;;;;;;;;;5017423;28;20442;-54
2023/01/28 11:45:19;;;;;;;10.53;8.20;;;;;;;;;;5011177;28;20449;-54
2023/01/28 11:47:54;;;;;;;14.03;7.73;;;;;;;;;;4995381;28;20555;-55
2023/01/28 11:50:24;;;;;;;12.60;7.77;;;;;;;;;;5014846;28;20731;-55
2023/01/28 11:53:07;;;;;;;10.83;7.13;;;;;;;;;;5012448;28;21100;-53
2023/01/28 11:55:54;;;;;;;13.07;8.60;;;;;;;;;;4989608;28;20851;-54
2023/01/28 11:58:30;;;;;;;11.80;7.33;;;;;;;;;;5015779;28;21074;-55
2023/01/28 12:01:02;;;;;;;14.43;8.60;;;;;;;;;;5027353;28;20427;-52
2023/01/28 12:03:33;;;;;;;10.30;7.17;;;;;;;;;;5017625;28;20439;-53
2023/01/28 12:06:05;;;;;;;11.30;7.30;;;;;;;;;;4976101;28;20440;-53
2023/01/28 12:08:37;;;;;;;11.57;8.10;;;;;;;;;;5016569;28;20439;-53
2023/01/28 12:11:07;;;;;;;10.60;7.93;;;;;;;;;;5017240;28;20509;-53
2023/01/28 12:13:36;;;;;;;14.53;9.30;;;;;;;;;;5014218;28;20439;-51
2023/01/28 12:16:11;;;;;;;12.77;7.57;;;;;;;;;;5015862;28;20599;-55
2023/01/28 12:18:46;;;;;;;11.70;7.33;;;;;;;;;;5018518;28;20439;-53
2023/01/28 12:21:19;;;;;;;13.53;8.90;;;;;;;;;;4990979;28;20446;-53
2023/01/28 12:24:21;;;;;;;15.20;8.60;;;;;;;;;;5021084;28;20446;-54
2023/01/28 12:27:05;;;;;;;15.73;9.00;;;;;;;;;;4969790;28;20427;-54
2023/01/28 12:29:48;;;;;;;20.60;10.27;;;;;;;;;;5013170;28;20443;-54
2023/01/28 12:32:38;;;;;;;14.27;8.67;;;;;;;;;;5016925;28;20439;-54
2023/01/28 12:35:07;;;;;;;15.47;8.23;;;;;;;;;;5020642;28;20454;-53
2023/01/28 12:37:51;;;;;;;13.23;7.17;;;;;;;;;;4997633;28;20427;-53
2023/01/28 12:40:25;;;;;;;12.20;7.80;;;;;;;;;;5001929;28;20471;-54
2023/01/28 12:42:52;;;;;;;10.83;8.30;;;;;;;;;;5002898;28;20519;-53
2023/01/28 12:45:19;;;;;;;12.90;9.57;;;;;;;;;;5013616;28;21398;-53
2023/01/28 12:47:48;;;;;;;11.27;7.43;;;;;;;;;;4996386;28;20500;-52
2023/01/28 12:50:17;;;;;;;14.50;6.87;;;;;;;;;;5020808;28;20805;-52
2023/01/28 12:52:50;;;;;;;16.17;9.47;;;;;;;;;;4998900;28;20808;-52
2023/01/28 12:55:16;;;;;;;17.33;10.90;;;;;;;;;;4998548;28;21055;-55
2023/01/28 12:57:42;;;;;;;14.00;8.77;;;;;;;;;;5022067;28;20482;-54
2023/01/28 13:00:11;;;;;;;15.53;7.80;;;;;;;;;;4996856;28;20796;-53
2023/01/28 13:02:38;;;;;;;14.47;8.47;;;;;;;;;;5022883;28;20466;-50
2023/01/28 13:05:15;;;;;;;13.03;9.03;;;;;;;;;;5016118;28;20491;-52
2023/01/28 13:07:43;;;;;;;14.60;7.20;;;;;;;;;;5025805;28;20437;-52
2023/01/28 13:10:16;;;;;;;13.30;7.90;;;;;;;;;;5003916;28;20543;-51
2023/01/28 13:12:42;;;;;;;14.60;8.17;;;;;;;;;;5022626;28;20442;-52
2023/01/28 13:15:12;;;;;;;12.63;8.80;;;;;;;;;;4977365;28;20856;-52
2023/01/28 13:17:37;;;;;;;14.43;7.47;;;;;;;;;;5021831;28;20177;-53
2023/01/28 13:20:13;;;;;;;9.50;6.40;;;;;;;;;;4995796;28;20423;-53
2023/01/28 13:22:39;;;;;;;10.53;6.40;;;;;;;;;;5012876;28;20467;-52
2023/01/28 13:25:29;;;;;;;10.60;6.67;;;;;;;;;;4995141;28;21135;-53
2023/01/28 13:27:58;;;;;;;7.57;5.40;;;;;;;;;;5012677;28;20995;-51
2023/01/28 13:30:28;;;;;;;11.20;6.23;;;;;;;;;;5031589;28;20438;-52
2023/01/28 13:32:55;;;;;;;8.57;5.70;;;;;;;;;;5015203;28;20970;-54
2023/01/28 13:35:37;;;;;;;10.00;5.87;;;;;;;;;;5012569;28;20566;-53
2023/01/28 13:38:07;;;;;;;8.70;6.53;;;;;;;;;;5013537;28;20443;-55
2023/01/28 13:40:33;;;;;;;9.73;4.87;;;;;;;;;;4982260;28;20443;-54
2023/01/28 13:43:05;;;;;;;12.10;5.03;;;;;;;;;;5032413;28;20442;-53
2023/01/28 13:45:32;;;;;;;10.07;5.13;;;;;;;;;;5007817;28;20538;-52
2023/01/28 13:48:21;;;;;;;13.40;6.87;;;;;;;;;;5016191;28;20451;-53
2023/01/28 13:50:47;;;;;;;15.13;7.00;;;;;;;;;;4958470;28;21039;-53
2023/01/28 13:53:22;;;;;;;9.67;6.27;;;;;;;;;;5017432;28;20443;-55
2023/01/28 13:55:48;;;;;;;10.23;7.47;;;;;;;;;;5008986;28;20478;-54
2023/01/28 13:58:17;;;;;;;14.30;7.67;;;;;;;;;;5013465;28;20437;-55
2023/01/28 14:00:55;;;;;;;8.77;6.67;;;;;;;;;;4990667;28;20447;-54
2023/01/28 14:03:21;;;;;;;10.53;6.60;;;;;;;;;;5015042;28;20493;-53
2023/01/28 14:05:50;;;;;;;9.80;6.97;;;;;;;;;;5014228;28;20479;-53
2023/01/28 14:08:22;;;;;;;9.93;6.20;;;;;;;;;;5016527;28;20759;-54
2023/01/28 14:10:54;;;;;;;13.20;7.63;;;;;;;;;;4993429;28;20901;-54
2023/01/28 14:13:39;;;;;;;10.73;5.63;;;;;;;;;;5017239;28;20491;-53
2023/01/28 14:16:24;;;;;;;10.07;6.80;;;;;;;;;;5017137;28;20505;-53
2023/01/28 14:18:51;;;;;;;8.67;5.97;;;;;;;;;;4997239;28;20470;-52
2023/01/28 14:21:20;;;;;;;9.00;5.70;;;;;;;;;;5002951;28;21003;-52
2023/01/28 14:23:50;;;;;;;17.13;8.17;;;;;;;;;;5010205;28;20997;-55
2023/01/28 14:26:27;;;;;;;9.80;5.93;;;;;;;;;;5012946;28;20434;-54
2023/01/28 14:28:53;;;;;;;13.40;8.43;;;;;;;;;;4995650;28;20912;-53
2023/01/28 14:31:30;;;;;;;12.77;7.10;;;;;;;;;;5008509;28;20426;-53
2023/01/28 14:33:58;;;;;;;11.40;7.00;;;;;;;;;;5015551;28;20940;-54
2023/01/28 14:36:24;;;;;;;14.23;7.50;;;;;;;;;;5019217;28;20570;-53
2023/01/28 14:38:50;;;;;;;9.10;6.97;;;;;;;;;;5016455;28;20529;-58
2023/01/28 14:41:24;;;;;;;17.07;8.67;;;;;;;;;;5018251;28;20485;-52
2023/01/28 14:43:50;;;;;;;11.30;7.03;;;;;;;;;;5009066;28;20452;-53
2023/01/28 14:46:19;;;;;;;10.40;6.80;;;;;;;;;;5001437;28;21021;-54
2023/01/28 14:48:48;;;;;;;10.30;7.03;;;;;;;;;;5008126;28;20450;-52
2023/01/28 14:51:17;;;;;;;10.97;7.87;;;;;;;;;;5008508;28;20443;-53
2023/01/28 14:54:14;;;;;;;8.33;5.30;;;;;;;;;;5001770;28;20442;-52
2023/01/28 14:56:48;;;;;;;9.43;5.90;;;;;;;;;;5020773;28;20445;-53
2023/01/28 14:59:44;;;;;;;7.03;6.00;;;;;;;;;;4991511;28;20490;-54
2023/01/28 15:02:12;;;;;;;10.33;6.47;;;;;;;;;;5005584;28;21025;-53
2023/01/28 15:04:38;;;;;;;8.97;5.40;;;;;;;;;;5012842;28;20675;-52
2023/01/28 15:07:17;;;;;;;7.80;5.57;;;;;;;;;;5012727;28;20450;-53
2023/01/28 15:09:44;;;;;;;10.03;6.43;;;;;;;;;;4997362;28;20431;-53
2023/01/28 15:12:10;;;;;;;6.50;5.13;;;;;;;;;;5021409;28;20437;-52
2023/01/28 15:14:36;;;;;;;7.60;5.43;;;;;;;;;;5001286;28;21039;-52
2023/01/28 15:17:02;;;;;;;11.30;7.40;;;;;;;;;;5020021;28;20439;-53
2023/01/28 15:19:32;;;;;;;8.70;5.63;;;;;;;;;;4993203;28;20511;-54
2023/01/28 15:22:05;;;;;;;9.53;6.40;;;;;;;;;;5023496;28;20419;-52